sensor_id;sensor_type;location;lat;lon;timestamp;P1;durP1;ratioP1;P2;durP2;ratioP2
36243;SDS011;22284;49.956;19.816;2022-08-01T00:00:50;10.23;;;6.08;;
36243;SDS011;22284;49.956;19.816;2022-08-01T00:03:51;8.18;;;6.05;;
36243;SDS011;22284;49.956;19.816;2022-08-01T00:06:52;8.83;;;6.00;;
36243;SDS011;22284;49.956;19.816;2022-08-01T00:09:53;9.53;;;6.53;;
36243;SDS011;22284;49.956;19.816;2022-08-01T00:12:54;8.65;;;5.97;;
36243;SDS011;22284;49.956;19.816;2022-08-01T00:15:55;10.98;;;5.87;;
36243;SDS011;22284;49.956;19.816;2022-08-01T00:18:56;10.85;;;5.90;;
36243;SDS011;22284;49.956;19.816;2022-08-01T00:21:57;12.05;;;6.50;;
36243;SDS011;22284;49.956;19.816;2022-08-01T00:24:58;15.60;;;6.65;;
36243;SDS011;22284;49.956;19.816;2022-08-01T00:27:59;9.23;;;5.62;;
36243;SDS011;22284;49.956;19.816;2022-08-01T00:31:00;10.98;;;6.08;;
36243;SDS011;22284;49.956;19.816;2022-08-01T00:34:01;9.10;;;5.85;;
36243;SDS011;22284;49.956;19.816;2022-08-01T00:37:02;10.50;;;5.67;;
36243;SDS011;22284;49.956;19.816;2022-08-01T00:40:03;8.15;;;5.65;;
36243;SDS011;22284;49.956;19.816;2022-08-01T00:43:06;8.23;;;5.83;;
36243;SDS011;22284;49.956;19.816;2022-08-01T00:46:07;9.35;;;6.00;;
36243;SDS011;22284;49.956;19.816;2022-08-01T00:49:08;9.65;;;6.05;;
36243;SDS011;22284;49.956;19.816;2022-08-01T00:52:09;10.08;;;6.00;;
36243;SDS011;22284;49.956;19.816;2022-08-01T00:55:10;10.85;;;6.70;;
36243;SDS011;22284;49.956;19.816;2022-08-01T00:58:13;11.00;;;6.10;;
36243;SDS011;22284;49.956;19.816;2022-08-01T01:01:14;15.00;;;6.50;;
36243;SDS011;22284;49.956;19.816;2022-08-01T01:04:15;9.00;;;6.28;;
36243;SDS011;22284;49.956;19.816;2022-08-01T01:10:45;9.63;;;5.83;;
36243;SDS011;22284;49.956;19.816;2022-08-01T01:14:03;9.13;;;5.97;;
36243;SDS011;22284;49.956;19.816;2022-08-01T01:17:07;10.10;;;6.20;;
36243;SDS011;22284;49.956;19.816;2022-08-01T01:20:10;9.63;;;5.60;;
36243;SDS011;22284;49.956;19.816;2022-08-01T01:30:06;8.65;;;5.58;;
36243;SDS011;22284;49.956;19.816;2022-08-01T01:33:08;11.12;;;5.87;;
36243;SDS011;22284;49.956;19.816;2022-08-01T01:36:11;9.25;;;5.80;;
36243;SDS011;22284;49.956;19.816;2022-08-01T01:39:15;8.55;;;5.72;;
36243;SDS011;22284;49.956;19.816;2022-08-01T01:42:17;12.28;;;6.20;;
36243;SDS011;22284;49.956;19.816;2022-08-01T01:45:19;10.85;;;6.37;;
36243;SDS011;22284;49.956;19.816;2022-08-01T01:48:21;13.43;;;5.92;;
36243;SDS011;22284;49.956;19.816;2022-08-01T01:51:24;9.83;;;5.75;;
36243;SDS011;22284;49.956;19.816;2022-08-01T01:54:35;7.58;;;5.42;;
36243;SDS011;22284;49.956;19.816;2022-08-01T01:57:40;9.98;;;5.50;;
36243;SDS011;22284;49.956;19.816;2022-08-01T02:00:43;8.53;;;5.97;;
36243;SDS011;22284;49.956;19.816;2022-08-01T02:03:46;11.05;;;5.78;;
36243;SDS011;22284;49.956;19.816;2022-08-01T02:06:50;9.20;;;6.05;;
36243;SDS011;22284;49.956;19.816;2022-08-01T02:09:53;8.35;;;6.03;;
36243;SDS011;22284;49.956;19.816;2022-08-01T02:12:57;12.05;;;6.17;;
36243;SDS011;22284;49.956;19.816;2022-08-01T02:16:01;10.05;;;5.78;;
36243;SDS011;22284;49.956;19.816;2022-08-01T02:19:04;8.65;;;6.00;;
36243;SDS011;22284;49.956;19.816;2022-08-01T02:22:19;7.72;;;5.58;;
36243;SDS011;22284;49.956;19.816;2022-08-01T02:25:39;8.73;;;5.80;;
36243;SDS011;22284;49.956;19.816;2022-08-01T02:28:46;8.28;;;5.35;;
36243;SDS011;22284;49.956;19.816;2022-08-01T02:31:50;8.35;;;6.10;;
36243;SDS011;22284;49.956;19.816;2022-08-01T02:34:54;8.08;;;6.08;;
36243;SDS011;22284;49.956;19.816;2022-08-01T02:38:00;12.73;;;5.72;;
36243;SDS011;22284;49.956;19.816;2022-08-01T02:41:05;8.15;;;5.45;;
36243;SDS011;22284;49.956;19.816;2022-08-01T02:44:10;9.60;;;5.97;;
36243;SDS011;22284;49.956;19.816;2022-08-01T02:47:15;8.58;;;5.35;;
36243;SDS011;22284;49.956;19.816;2022-08-01T02:50:20;11.53;;;6.00;;
36243;SDS011;22284;49.956;19.816;2022-08-01T02:53:23;9.23;;;6.20;;
36243;SDS011;22284;49.956;19.816;2022-08-01T02:56:27;8.33;;;5.67;;
36243;SDS011;22284;49.956;19.816;2022-08-01T02:59:37;8.48;;;5.70;;
36243;SDS011;22284;49.956;19.816;2022-08-01T03:02:39;6.83;;;5.67;;
36243;SDS011;22284;49.956;19.816;2022-08-01T03:05:42;9.23;;;6.20;;
36243;SDS011;22284;49.956;19.816;2022-08-01T03:08:45;9.50;;;5.87;;
36243;SDS011;22284;49.956;19.816;2022-08-01T03:11:48;10.43;;;6.80;;
36243;SDS011;22284;49.956;19.816;2022-08-01T03:14:51;11.12;;;6.50;;
36243;SDS011;22284;49.956;19.816;2022-08-01T03:17:56;9.58;;;6.67;;
36243;SDS011;22284;49.956;19.816;2022-08-01T03:20:59;7.70;;;6.17;;
36243;SDS011;22284;49.956;19.816;2022-08-01T03:24:01;12.83;;;6.73;;
36243;SDS011;22284;49.956;19.816;2022-08-01T03:27:06;9.48;;;6.62;;
36243;SDS011;22284;49.956;19.816;2022-08-01T03:30:07;10.55;;;6.33;;
36243;SDS011;22284;49.956;19.816;2022-08-01T03:33:10;10.48;;;5.97;;
36243;SDS011;22284;49.956;19.816;2022-08-01T03:36:11;9.05;;;6.53;;
36243;SDS011;22284;49.956;19.816;2022-08-01T03:39:14;8.63;;;6.33;;
36243;SDS011;22284;49.956;19.816;2022-08-01T03:42:18;8.88;;;6.12;;
36243;SDS011;22284;49.956;19.816;2022-08-01T03:45:23;12.53;;;5.65;;
36243;SDS011;22284;49.956;19.816;2022-08-01T03:48:28;10.20;;;5.90;;
36243;SDS011;22284;49.956;19.816;2022-08-01T03:51:31;8.88;;;6.00;;
36243;SDS011;22284;49.956;19.816;2022-08-01T03:57:38;12.03;;;5.47;;
36243;SDS011;22284;49.956;19.816;2022-08-01T04:00:40;8.95;;;5.40;;
36243;SDS011;22284;49.956;19.816;2022-08-01T04:03:42;11.73;;;5.50;;
36243;SDS011;22284;49.956;19.816;2022-08-01T04:06:44;9.70;;;5.90;;
36243;SDS011;22284;49.956;19.816;2022-08-01T04:09:45;7.33;;;4.75;;
36243;SDS011;22284;49.956;19.816;2022-08-01T04:12:47;12.07;;;5.45;;
36243;SDS011;22284;49.956;19.816;2022-08-01T04:15:48;10.15;;;6.03;;
36243;SDS011;22284;49.956;19.816;2022-08-01T04:18:49;8.53;;;5.87;;
36243;SDS011;22284;49.956;19.816;2022-08-01T04:21:50;7.78;;;5.22;;
36243;SDS011;22284;49.956;19.816;2022-08-01T04:24:53;8.95;;;5.75;;
36243;SDS011;22284;49.956;19.816;2022-08-01T04:27:57;8.23;;;5.72;;
36243;SDS011;22284;49.956;19.816;2022-08-01T04:31:00;7.15;;;5.20;;
36243;SDS011;22284;49.956;19.816;2022-08-01T04:34:02;9.17;;;5.27;;
36243;SDS011;22284;49.956;19.816;2022-08-01T04:37:07;9.55;;;5.67;;
36243;SDS011;22284;49.956;19.816;2022-08-01T04:40:11;9.50;;;5.70;;
36243;SDS011;22284;49.956;19.816;2022-08-01T04:43:13;12.40;;;5.80;;
36243;SDS011;22284;49.956;19.816;2022-08-01T04:46:14;10.90;;;5.60;;
36243;SDS011;22284;49.956;19.816;2022-08-01T04:49:16;11.13;;;6.83;;
36243;SDS011;22284;49.956;19.816;2022-08-01T04:52:17;9.65;;;6.72;;
36243;SDS011;22284;49.956;19.816;2022-08-01T04:55:18;10.72;;;6.90;;
36243;SDS011;22284;49.956;19.816;2022-08-01T04:58:19;9.45;;;6.97;;
36243;SDS011;22284;49.956;19.816;2022-08-01T05:01:20;15.88;;;8.00;;
36243;SDS011;22284;49.956;19.816;2022-08-01T05:04:21;11.83;;;7.97;;
36243;SDS011;22284;49.956;19.816;2022-08-01T05:07:22;13.28;;;8.40;;
36243;SDS011;22284;49.956;19.816;2022-08-01T05:10:23;15.00;;;9.00;;
36243;SDS011;22284;49.956;19.816;2022-08-01T05:13:24;15.30;;;9.38;;
36243;SDS011;22284;49.956;19.816;2022-08-01T05:16:25;16.60;;;9.53;;
36243;SDS011;22284;49.956;19.816;2022-08-01T05:19:26;14.15;;;8.73;;
36243;SDS011;22284;49.956;19.816;2022-08-01T05:22:27;12.73;;;8.05;;
36243;SDS011;22284;49.956;19.816;2022-08-01T05:25:29;14.73;;;8.38;;
36243;SDS011;22284;49.956;19.816;2022-08-01T05:28:30;11.80;;;7.80;;
36243;SDS011;22284;49.956;19.816;2022-08-01T05:31:31;13.78;;;8.25;;
36243;SDS011;22284;49.956;19.816;2022-08-01T05:34:34;12.13;;;8.20;;
36243;SDS011;22284;49.956;19.816;2022-08-01T05:37:36;13.32;;;8.28;;
36243;SDS011;22284;49.956;19.816;2022-08-01T05:40:36;16.42;;;8.25;;
36243;SDS011;22284;49.956;19.816;2022-08-01T05:43:37;15.23;;;8.60;;
36243;SDS011;22284;49.956;19.816;2022-08-01T05:46:38;13.15;;;8.25;;
36243;SDS011;22284;49.956;19.816;2022-08-01T05:49:40;8.73;;;6.92;;
36243;SDS011;22284;49.956;19.816;2022-08-01T05:52:41;12.10;;;7.70;;
36243;SDS011;22284;49.956;19.816;2022-08-01T05:55:41;11.53;;;7.20;;
36243;SDS011;22284;49.956;19.816;2022-08-01T05:58:42;12.10;;;6.80;;
36243;SDS011;22284;49.956;19.816;2022-08-01T06:01:43;9.53;;;6.20;;
36243;SDS011;22284;49.956;19.816;2022-08-01T06:04:47;10.00;;;6.42;;
36243;SDS011;22284;49.956;19.816;2022-08-01T06:07:48;8.48;;;5.78;;
36243;SDS011;22284;49.956;19.816;2022-08-01T06:10:48;12.30;;;6.65;;
36243;SDS011;22284;49.956;19.816;2022-08-01T06:13:49;9.13;;;5.60;;
36243;SDS011;22284;49.956;19.816;2022-08-01T06:16:51;11.18;;;5.65;;
36243;SDS011;22284;49.956;19.816;2022-08-01T06:19:52;9.88;;;5.40;;
36243;SDS011;22284;49.956;19.816;2022-08-01T06:22:53;13.20;;;6.45;;
36243;SDS011;22284;49.956;19.816;2022-08-01T06:25:54;12.28;;;5.50;;
36243;SDS011;22284;49.956;19.816;2022-08-01T06:28:55;8.03;;;5.50;;
36243;SDS011;22284;49.956;19.816;2022-08-01T06:31:56;10.53;;;5.67;;
36243;SDS011;22284;49.956;19.816;2022-08-01T06:34:57;7.35;;;5.40;;
36243;SDS011;22284;49.956;19.816;2022-08-01T06:37:58;14.53;;;6.12;;
36243;SDS011;22284;49.956;19.816;2022-08-01T06:40:59;9.78;;;5.67;;
36243;SDS011;22284;49.956;19.816;2022-08-01T06:44:00;7.25;;;5.15;;
36243;SDS011;22284;49.956;19.816;2022-08-01T06:47:03;9.90;;;5.75;;
36243;SDS011;22284;49.956;19.816;2022-08-01T06:50:05;6.62;;;5.15;;
36243;SDS011;22284;49.956;19.816;2022-08-01T06:53:08;7.58;;;5.10;;
36243;SDS011;22284;49.956;19.816;2022-08-01T06:56:09;8.88;;;4.80;;
36243;SDS011;22284;49.956;19.816;2022-08-01T06:59:10;7.17;;;4.85;;
36243;SDS011;22284;49.956;19.816;2022-08-01T07:02:11;6.42;;;4.75;;
36243;SDS011;22284;49.956;19.816;2022-08-01T07:05:12;7.87;;;4.75;;
36243;SDS011;22284;49.956;19.816;2022-08-01T07:08:13;12.05;;;4.90;;
36243;SDS011;22284;49.956;19.816;2022-08-01T07:11:14;8.10;;;4.80;;
36243;SDS011;22284;49.956;19.816;2022-08-01T07:14:15;8.65;;;4.75;;
36243;SDS011;22284;49.956;19.816;2022-08-01T07:17:16;9.75;;;5.03;;
36243;SDS011;22284;49.956;19.816;2022-08-01T07:20:19;8.85;;;4.60;;
36243;SDS011;22284;49.956;19.816;2022-08-01T07:23:20;8.70;;;5.10;;
36243;SDS011;22284;49.956;19.816;2022-08-01T07:26:21;11.63;;;5.87;;
36243;SDS011;22284;49.956;19.816;2022-08-01T07:29:23;12.65;;;6.03;;
36243;SDS011;22284;49.956;19.816;2022-08-01T07:35:26;9.48;;;4.67;;
36243;SDS011;22284;49.956;19.816;2022-08-01T07:38:27;6.67;;;4.55;;
36243;SDS011;22284;49.956;19.816;2022-08-01T07:41:28;8.30;;;4.53;;
36243;SDS011;22284;49.956;19.816;2022-08-01T07:44:29;6.17;;;4.50;;
36243;SDS011;22284;49.956;19.816;2022-08-01T07:47:29;8.13;;;4.70;;
36243;SDS011;22284;49.956;19.816;2022-08-01T07:50:31;7.08;;;4.20;;
36243;SDS011;22284;49.956;19.816;2022-08-01T07:53:32;6.53;;;4.30;;
36243;SDS011;22284;49.956;19.816;2022-08-01T07:56:33;5.55;;;4.08;;
36243;SDS011;22284;49.956;19.816;2022-08-01T07:59:34;6.28;;;3.62;;
36243;SDS011;22284;49.956;19.816;2022-08-01T08:02:35;5.78;;;3.50;;
36243;SDS011;22284;49.956;19.816;2022-08-01T08:05:36;7.47;;;3.75;;
36243;SDS011;22284;49.956;19.816;2022-08-01T08:08:37;5.00;;;3.42;;
36243;SDS011;22284;49.956;19.816;2022-08-01T08:11:39;4.37;;;3.20;;
36243;SDS011;22284;49.956;19.816;2022-08-01T08:14:39;8.60;;;3.67;;
36243;SDS011;22284;49.956;19.816;2022-08-01T08:17:40;4.95;;;2.83;;
36243;SDS011;22284;49.956;19.816;2022-08-01T08:20:41;5.87;;;3.20;;
36243;SDS011;22284;49.956;19.816;2022-08-01T08:23:43;7.28;;;3.02;;
36243;SDS011;22284;49.956;19.816;2022-08-01T08:27:02;4.78;;;2.75;;
36243;SDS011;22284;49.956;19.816;2022-08-01T08:30:04;4.90;;;2.30;;
36243;SDS011;22284;49.956;19.816;2022-08-01T08:33:07;4.65;;;2.33;;
36243;SDS011;22284;49.956;19.816;2022-08-01T08:36:08;5.15;;;2.20;;
36243;SDS011;22284;49.956;19.816;2022-08-01T08:39:11;5.37;;;2.47;;
36243;SDS011;22284;49.956;19.816;2022-08-01T08:42:12;5.25;;;2.45;;
36243;SDS011;22284;49.956;19.816;2022-08-01T08:45:13;4.33;;;2.70;;
36243;SDS011;22284;49.956;19.816;2022-08-01T08:48:14;4.55;;;3.00;;
36243;SDS011;22284;49.956;19.816;2022-08-01T08:51:16;4.95;;;2.70;;
36243;SDS011;22284;49.956;19.816;2022-08-01T08:54:22;4.60;;;2.40;;
36243;SDS011;22284;49.956;19.816;2022-08-01T08:57:25;7.42;;;2.55;;
36243;SDS011;22284;49.956;19.816;2022-08-01T09:00:26;4.90;;;2.22;;
36243;SDS011;22284;49.956;19.816;2022-08-01T09:03:27;3.02;;;2.50;;
36243;SDS011;22284;49.956;19.816;2022-08-01T09:06:28;3.22;;;2.37;;
36243;SDS011;22284;49.956;19.816;2022-08-01T09:09:31;4.28;;;2.25;;
36243;SDS011;22284;49.956;19.816;2022-08-01T09:12:32;3.90;;;2.15;;
36243;SDS011;22284;49.956;19.816;2022-08-01T09:15:38;2.60;;;1.72;;
36243;SDS011;22284;49.956;19.816;2022-08-01T09:18:44;5.35;;;2.20;;
36243;SDS011;22284;49.956;19.816;2022-08-01T09:21:56;5.05;;;2.20;;
36243;SDS011;22284;49.956;19.816;2022-08-01T09:25:00;5.12;;;2.22;;
36243;SDS011;22284;49.956;19.816;2022-08-01T09:28:08;5.37;;;2.30;;
36243;SDS011;22284;49.956;19.816;2022-08-01T09:31:17;2.52;;;2.00;;
36243;SDS011;22284;49.956;19.816;2022-08-01T09:34:26;2.80;;;2.27;;
36243;SDS011;22284;49.956;19.816;2022-08-01T09:37:30;4.10;;;2.33;;
36243;SDS011;22284;49.956;19.816;2022-08-01T09:41:05;3.17;;;2.17;;
36243;SDS011;22284;49.956;19.816;2022-08-01T09:43:50;4.65;;;2.20;;
36243;SDS011;22284;49.956;19.816;2022-08-01T09:46:52;2.35;;;1.90;;
36243;SDS011;22284;49.956;19.816;2022-08-01T09:49:55;3.50;;;1.90;;
36243;SDS011;22284;49.956;19.816;2022-08-01T09:52:57;3.37;;;2.52;;
36243;SDS011;22284;49.956;19.816;2022-08-01T09:56:10;7.12;;;2.20;;
36243;SDS011;22284;49.956;19.816;2022-08-01T09:59:13;4.72;;;2.60;;
36243;SDS011;22284;49.956;19.816;2022-08-01T10:02:14;5.12;;;2.37;;
36243;SDS011;22284;49.956;19.816;2022-08-01T10:05:33;3.65;;;2.40;;
36243;SDS011;22284;49.956;19.816;2022-08-01T10:08:45;2.77;;;1.95;;
36243;SDS011;22284;49.956;19.816;2022-08-01T10:11:48;4.33;;;2.30;;
36243;SDS011;22284;49.956;19.816;2022-08-01T10:14:50;3.85;;;2.25;;
36243;SDS011;22284;49.956;19.816;2022-08-01T10:17:56;3.05;;;2.27;;
36243;SDS011;22284;49.956;19.816;2022-08-01T10:21:01;4.28;;;2.22;;
36243;SDS011;22284;49.956;19.816;2022-08-01T10:24:04;3.35;;;1.90;;
36243;SDS011;22284;49.956;19.816;2022-08-01T10:27:09;5.80;;;2.40;;
36243;SDS011;22284;49.956;19.816;2022-08-01T10:30:11;4.03;;;2.22;;
36243;SDS011;22284;49.956;19.816;2022-08-01T10:33:13;5.83;;;2.17;;
36243;SDS011;22284;49.956;19.816;2022-08-01T10:39:20;5.78;;;2.10;;
36243;SDS011;22284;49.956;19.816;2022-08-01T10:42:22;2.77;;;1.60;;
36243;SDS011;22284;49.956;19.816;2022-08-01T10:45:24;5.20;;;1.90;;
36243;SDS011;22284;49.956;19.816;2022-08-01T10:48:29;4.42;;;2.05;;
36243;SDS011;22284;49.956;19.816;2022-08-01T10:51:37;4.62;;;2.02;;
36243;SDS011;22284;49.956;19.816;2022-08-01T10:54:39;2.15;;;2.00;;
36243;SDS011;22284;49.956;19.816;2022-08-01T10:57:41;4.35;;;2.02;;
36243;SDS011;22284;49.956;19.816;2022-08-01T11:00:45;4.72;;;2.12;;
36243;SDS011;22284;49.956;19.816;2022-08-01T11:07:06;4.08;;;2.22;;
36243;SDS011;22284;49.956;19.816;2022-08-01T11:10:13;4.92;;;2.58;;
36243;SDS011;22284;49.956;19.816;2022-08-01T11:17:30;2.20;;;1.77;;
36243;SDS011;22284;49.956;19.816;2022-08-01T11:20:37;3.45;;;2.17;;
36243;SDS011;22284;49.956;19.816;2022-08-01T11:23:50;4.60;;;2.12;;
36243;SDS011;22284;49.956;19.816;2022-08-01T11:30:27;3.00;;;2.08;;
36243;SDS011;22284;49.956;19.816;2022-08-01T11:36:48;3.30;;;2.12;;
36243;SDS011;22284;49.956;19.816;2022-08-01T11:43:21;4.50;;;2.17;;
36243;SDS011;22284;49.956;19.816;2022-08-01T11:50:03;2.27;;;1.95;;
36243;SDS011;22284;49.956;19.816;2022-08-01T11:53:05;4.97;;;2.27;;
36243;SDS011;22284;49.956;19.816;2022-08-01T11:56:08;3.52;;;1.87;;
36243;SDS011;22284;49.956;19.816;2022-08-01T11:59:09;5.33;;;2.27;;
36243;SDS011;22284;49.956;19.816;2022-08-01T12:02:17;4.80;;;2.15;;
36243;SDS011;22284;49.956;19.816;2022-08-01T12:05:27;4.30;;;2.10;;
36243;SDS011;22284;49.956;19.816;2022-08-01T12:08:30;8.68;;;2.27;;
36243;SDS011;22284;49.956;19.816;2022-08-01T12:11:34;2.55;;;2.00;;
36243;SDS011;22284;49.956;19.816;2022-08-01T12:14:35;5.45;;;2.50;;
36243;SDS011;22284;49.956;19.816;2022-08-01T12:17:37;4.83;;;2.60;;
36243;SDS011;22284;49.956;19.816;2022-08-01T12:20:45;3.52;;;2.55;;
36243;SDS011;22284;49.956;19.816;2022-08-01T12:23:59;3.80;;;2.75;;
36243;SDS011;22284;49.956;19.816;2022-08-01T12:27:03;3.98;;;2.62;;
36243;SDS011;22284;49.956;19.816;2022-08-01T12:30:07;5.30;;;2.72;;
36243;SDS011;22284;49.956;19.816;2022-08-01T12:33:16;3.00;;;2.50;;
36243;SDS011;22284;49.956;19.816;2022-08-01T12:36:26;4.75;;;3.62;;
36243;SDS011;22284;49.956;19.816;2022-08-01T12:39:29;5.50;;;2.70;;
36243;SDS011;22284;49.956;19.816;2022-08-01T12:42:36;8.43;;;2.90;;
36243;SDS011;22284;49.956;19.816;2022-08-01T12:45:41;3.70;;;2.85;;
36243;SDS011;22284;49.956;19.816;2022-08-01T12:48:45;6.58;;;2.87;;
36243;SDS011;22284;49.956;19.816;2022-08-01T12:51:46;7.30;;;2.95;;
36243;SDS011;22284;49.956;19.816;2022-08-01T12:58:12;5.08;;;2.95;;
36243;SDS011;22284;49.956;19.816;2022-08-01T13:01:16;6.75;;;3.12;;
36243;SDS011;22284;49.956;19.816;2022-08-01T13:04:22;5.70;;;3.10;;
36243;SDS011;22284;49.956;19.816;2022-08-01T13:07:23;5.67;;;3.10;;
36243;SDS011;22284;49.956;19.816;2022-08-01T13:10:45;4.43;;;2.87;;
36243;SDS011;22284;49.956;19.816;2022-08-01T13:13:50;8.40;;;2.92;;
36243;SDS011;22284;49.956;19.816;2022-08-01T13:16:53;4.10;;;2.90;;
36243;SDS011;22284;49.956;19.816;2022-08-01T13:19:54;6.08;;;3.10;;
36243;SDS011;22284;49.956;19.816;2022-08-01T13:22:55;6.92;;;3.35;;
36243;SDS011;22284;49.956;19.816;2022-08-01T13:26:12;5.37;;;3.10;;
36243;SDS011;22284;49.956;19.816;2022-08-01T13:29:14;4.37;;;3.17;;
36243;SDS011;22284;49.956;19.816;2022-08-01T13:32:19;7.28;;;3.08;;
36243;SDS011;22284;49.956;19.816;2022-08-01T13:35:22;5.87;;;3.60;;
36243;SDS011;22284;49.956;19.816;2022-08-01T13:38:23;3.92;;;3.35;;
36243;SDS011;22284;49.956;19.816;2022-08-01T13:41:26;5.78;;;3.22;;
36243;SDS011;22284;49.956;19.816;2022-08-01T13:44:27;4.58;;;3.50;;
36243;SDS011;22284;49.956;19.816;2022-08-01T13:47:28;7.60;;;3.60;;
36243;SDS011;22284;49.956;19.816;2022-08-01T13:50:30;4.70;;;3.52;;
36243;SDS011;22284;49.956;19.816;2022-08-01T13:53:32;5.12;;;3.37;;
36243;SDS011;22284;49.956;19.816;2022-08-01T13:56:32;6.05;;;3.70;;
36243;SDS011;22284;49.956;19.816;2022-08-01T13:59:34;5.25;;;3.67;;
36243;SDS011;22284;49.956;19.816;2022-08-01T14:02:35;4.72;;;3.83;;
36243;SDS011;22284;49.956;19.816;2022-08-01T14:05:36;5.95;;;3.95;;
36243;SDS011;22284;49.956;19.816;2022-08-01T14:08:38;4.92;;;3.85;;
36243;SDS011;22284;49.956;19.816;2022-08-01T14:11:39;6.12;;;4.28;;
36243;SDS011;22284;49.956;19.816;2022-08-01T14:14:40;5.40;;;3.42;;
36243;SDS011;22284;49.956;19.816;2022-08-01T14:17:41;4.87;;;3.85;;
36243;SDS011;22284;49.956;19.816;2022-08-01T14:20:42;9.15;;;4.03;;
36243;SDS011;22284;49.956;19.816;2022-08-01T14:23:44;5.60;;;3.80;;
36243;SDS011;22284;49.956;19.816;2022-08-01T14:26:45;8.15;;;4.35;;
36243;SDS011;22284;49.956;19.816;2022-08-01T14:29:46;4.70;;;3.92;;
36243;SDS011;22284;49.956;19.816;2022-08-01T14:32:47;7.17;;;4.30;;
36243;SDS011;22284;49.956;19.816;2022-08-01T14:35:48;6.75;;;4.58;;
36243;SDS011;22284;49.956;19.816;2022-08-01T14:38:49;9.03;;;4.20;;
36243;SDS011;22284;49.956;19.816;2022-08-01T14:41:50;5.60;;;3.98;;
36243;SDS011;22284;49.956;19.816;2022-08-01T14:44:51;4.53;;;4.12;;
36243;SDS011;22284;49.956;19.816;2022-08-01T14:47:52;8.40;;;3.87;;
36243;SDS011;22284;49.956;19.816;2022-08-01T14:50:53;4.20;;;3.80;;
36243;SDS011;22284;49.956;19.816;2022-08-01T14:53:54;6.22;;;4.10;;
36243;SDS011;22284;49.956;19.816;2022-08-01T14:56:56;6.45;;;4.22;;
36243;SDS011;22284;49.956;19.816;2022-08-01T14:59:57;4.28;;;3.87;;
36243;SDS011;22284;49.956;19.816;2022-08-01T15:02:58;5.72;;;4.00;;
36243;SDS011;22284;49.956;19.816;2022-08-01T15:05:59;5.28;;;4.20;;
36243;SDS011;22284;49.956;19.816;2022-08-01T15:09:00;7.65;;;4.17;;
36243;SDS011;22284;49.956;19.816;2022-08-01T15:12:01;9.85;;;4.15;;
36243;SDS011;22284;49.956;19.816;2022-08-01T15:15:03;6.22;;;3.70;;
36243;SDS011;22284;49.956;19.816;2022-08-01T15:18:05;6.47;;;3.70;;
36243;SDS011;22284;49.956;19.816;2022-08-01T15:21:06;11.00;;;3.85;;
36243;SDS011;22284;49.956;19.816;2022-08-01T15:24:07;5.58;;;3.72;;
36243;SDS011;22284;49.956;19.816;2022-08-01T15:27:09;7.05;;;3.70;;
36243;SDS011;22284;49.956;19.816;2022-08-01T15:30:11;4.70;;;3.62;;
36243;SDS011;22284;49.956;19.816;2022-08-01T15:33:12;4.15;;;3.65;;
36243;SDS011;22284;49.956;19.816;2022-08-01T15:36:14;5.20;;;3.45;;
36243;SDS011;22284;49.956;19.816;2022-08-01T15:39:15;3.73;;;3.30;;
36243;SDS011;22284;49.956;19.816;2022-08-01T15:42:16;6.83;;;3.40;;
36243;SDS011;22284;49.956;19.816;2022-08-01T15:45:18;5.45;;;3.47;;
36243;SDS011;22284;49.956;19.816;2022-08-01T15:48:21;4.55;;;3.70;;
36243;SDS011;22284;49.956;19.816;2022-08-01T15:51:22;4.03;;;3.33;;
36243;SDS011;22284;49.956;19.816;2022-08-01T15:54:24;6.20;;;3.55;;
36243;SDS011;22284;49.956;19.816;2022-08-01T15:57:25;4.47;;;3.50;;
36243;SDS011;22284;49.956;19.816;2022-08-01T16:00:26;3.67;;;3.15;;
36243;SDS011;22284;49.956;19.816;2022-08-01T16:03:26;5.55;;;3.67;;
36243;SDS011;22284;49.956;19.816;2022-08-01T16:06:27;4.58;;;4.03;;
36243;SDS011;22284;49.956;19.816;2022-08-01T16:09:28;4.90;;;3.80;;
36243;SDS011;22284;49.956;19.816;2022-08-01T16:12:29;8.88;;;4.30;;
36243;SDS011;22284;49.956;19.816;2022-08-01T16:15:30;4.35;;;3.80;;
36243;SDS011;22284;49.956;19.816;2022-08-01T16:18:31;7.25;;;4.15;;
36243;SDS011;22284;49.956;19.816;2022-08-01T16:21:32;6.75;;;3.98;;
36243;SDS011;22284;49.956;19.816;2022-08-01T16:24:34;5.97;;;3.97;;
36243;SDS011;22284;49.956;19.816;2022-08-01T16:27:35;4.87;;;4.10;;
36243;SDS011;22284;49.956;19.816;2022-08-01T16:30:36;8.03;;;4.25;;
36243;SDS011;22284;49.956;19.816;2022-08-01T16:33:39;4.33;;;3.45;;
36243;SDS011;22284;49.956;19.816;2022-08-01T16:36:40;5.17;;;4.20;;
36243;SDS011;22284;49.956;19.816;2022-08-01T16:39:41;5.35;;;3.98;;
36243;SDS011;22284;49.956;19.816;2022-08-01T16:42:43;5.42;;;3.90;;
36243;SDS011;22284;49.956;19.816;2022-08-01T16:45:44;5.17;;;3.90;;
36243;SDS011;22284;49.956;19.816;2022-08-01T16:48:46;5.97;;;4.12;;
36243;SDS011;22284;49.956;19.816;2022-08-01T16:51:47;5.80;;;4.30;;
36243;SDS011;22284;49.956;19.816;2022-08-01T16:54:47;6.65;;;4.42;;
36243;SDS011;22284;49.956;19.816;2022-08-01T16:57:48;7.40;;;4.30;;
36243;SDS011;22284;49.956;19.816;2022-08-01T17:00:50;8.30;;;4.35;;
36243;SDS011;22284;49.956;19.816;2022-08-01T17:06:53;6.47;;;4.40;;
36243;SDS011;22284;49.956;19.816;2022-08-01T17:09:54;5.50;;;4.30;;
36243;SDS011;22284;49.956;19.816;2022-08-01T17:12:55;8.00;;;4.40;;
36243;SDS011;22284;49.956;19.816;2022-08-01T17:15:56;7.97;;;4.85;;
36243;SDS011;22284;49.956;19.816;2022-08-01T17:18:57;8.75;;;5.30;;
36243;SDS011;22284;49.956;19.816;2022-08-01T17:21:58;9.33;;;5.33;;
36243;SDS011;22284;49.956;19.816;2022-08-01T17:25:00;8.73;;;5.70;;
36243;SDS011;22284;49.956;19.816;2022-08-01T17:28:01;6.85;;;5.37;;
36243;SDS011;22284;49.956;19.816;2022-08-01T17:31:02;6.90;;;5.20;;
36243;SDS011;22284;49.956;19.816;2022-08-01T17:34:03;8.15;;;5.50;;
36243;SDS011;22284;49.956;19.816;2022-08-01T17:37:04;7.40;;;5.78;;
36243;SDS011;22284;49.956;19.816;2022-08-01T17:40:06;8.78;;;5.67;;
36243;SDS011;22284;49.956;19.816;2022-08-01T17:43:08;6.97;;;5.75;;
36243;SDS011;22284;49.956;19.816;2022-08-01T17:46:09;8.00;;;5.20;;
36243;SDS011;22284;49.956;19.816;2022-08-01T17:49:10;10.32;;;5.53;;
36243;SDS011;22284;49.956;19.816;2022-08-01T17:52:11;9.63;;;6.50;;
36243;SDS011;22284;49.956;19.816;2022-08-01T17:55:12;10.90;;;6.25;;
36243;SDS011;22284;49.956;19.816;2022-08-01T17:58:15;9.70;;;6.15;;
36243;SDS011;22284;49.956;19.816;2022-08-01T18:01:17;9.90;;;6.33;;
36243;SDS011;22284;49.956;19.816;2022-08-01T18:04:18;12.37;;;7.12;;
36243;SDS011;22284;49.956;19.816;2022-08-01T18:07:20;10.50;;;6.67;;
36243;SDS011;22284;49.956;19.816;2022-08-01T18:10:21;9.80;;;6.22;;
36243;SDS011;22284;49.956;19.816;2022-08-01T18:13:22;8.70;;;6.58;;
36243;SDS011;22284;49.956;19.816;2022-08-01T18:16:23;12.20;;;6.60;;
36243;SDS011;22284;49.956;19.816;2022-08-01T18:19:24;9.65;;;5.70;;
36243;SDS011;22284;49.956;19.816;2022-08-01T18:22:25;9.40;;;6.20;;
36243;SDS011;22284;49.956;19.816;2022-08-01T18:25:26;8.75;;;6.58;;
36243;SDS011;22284;49.956;19.816;2022-08-01T18:28:29;8.40;;;6.30;;
36243;SDS011;22284;49.956;19.816;2022-08-01T18:31:30;13.00;;;7.00;;
36243;SDS011;22284;49.956;19.816;2022-08-01T18:34:31;11.73;;;7.03;;
36243;SDS011;22284;49.956;19.816;2022-08-01T18:37:32;8.43;;;6.78;;
36243;SDS011;22284;49.956;19.816;2022-08-01T18:40:33;9.08;;;6.60;;
36243;SDS011;22284;49.956;19.816;2022-08-01T18:43:35;11.63;;;7.03;;
36243;SDS011;22284;49.956;19.816;2022-08-01T18:46:37;10.15;;;6.97;;